Time;durP1;ratioP1;P1;durP2;ratioP2;P2;SDS_P1;SDS_P2;PMS_P1;PMS_P2;Temp;Humidity;BMP_temperature;BMP_pressure;BME280_temperature;BME280_humidity;BME280_pressure;Samples;Min_cycle;Max_cycle;Signal;HPM_P1;HPM_P2
2021/10/15 00:09:34;;;;;;;0.43;0.43;;;16.80;99.90;;;;;;20642365;28;20580;-72
2021/10/15 00:19:38;;;;;;;0.20;0.20;;;16.90;99.90;;;;;;20657851;28;20242;-73
2021/10/15 00:29:42;;;;;;;0.40;0.40;;;17.20;99.90;;;;;;20659360;28;20203;-73
2021/10/15 00:39:48;;;;;;;0.93;0.50;;;17.20;99.90;;;;;;20656595;28;20317;-72
2021/10/15 00:49:51;;;;;;;0.20;0.10;;;17.20;99.90;;;;;;20657338;28;20195;-73
2021/10/15 00:59:56;;;;;;;0.20;0.20;;;17.40;99.90;;;;;;20865527;23;20445;-74
2021/10/15 01:10:00;;;;;;;1.87;0.90;;;17.50;99.90;;;;;;20655296;28;20205;-74
2021/10/15 01:20:06;;;;;;;0.57;0.57;;;17.30;99.90;;;;;;20654597;28;20238;-74
2021/10/15 01:30:11;;;;;;;21.10;0.67;;;17.20;99.90;;;;;;20653496;28;20206;-76
2021/10/15 01:40:16;;;;;;;5.13;1.30;;;16.90;99.90;;;;;;20653502;28;20298;-74
2021/10/15 01:50:20;;;;;;;0.20;0.20;;;16.60;99.90;;;;;;20653488;28;20207;-74
2021/10/15 02:00:25;;;;;;;0.40;0.40;;;16.50;99.90;;;;;;20653085;28;20235;-73
2021/10/15 02:10:29;;;;;;;0.20;0.20;;;17.00;99.90;;;;;;20651477;28;20196;-72
2021/10/15 02:20:34;;;;;;;0.40;0.40;;;17.60;99.90;;;;;;20651464;28;20231;-74
2021/10/15 02:30:37;;;;;;;0.73;0.50;;;17.60;99.90;;;;;;20651327;28;20661;-73
2021/10/15 02:40:42;;;;;;;0.30;0.30;;;17.40;99.90;;;;;;20651617;28;20223;-72
2021/10/15 02:50:46;;;;;;;3.27;0.70;;;17.70;99.90;;;;;;20652086;28;20191;-74
2021/10/15 03:00:51;;;;;;;0.20;0.10;;;17.50;99.90;;;;;;20658732;28;20278;-74
2021/10/15 03:10:54;;;;;;;0.50;0.40;;;17.10;99.90;;;;;;20664952;28;20295;-75
2021/10/15 03:20:59;;;;;;;0.33;0.33;;;17.10;99.90;;;;;;20663253;28;20219;-74
2021/10/15 03:31:03;;;;;;;2.10;0.40;;;17.20;99.90;;;;;;20745474;23;20243;-74
2021/10/15 03:41:09;;;;;;;2.00;0.73;;;17.20;99.90;;;;;;20596496;28;20278;-73
2021/10/15 03:51:12;;;;;;;0.37;0.37;;;17.00;99.90;;;;;;20588035;28;20194;-75
2021/10/15 04:01:17;;;;;;;0.50;0.40;;;16.90;99.90;;;;;;20655281;28;20315;-75
2021/10/15 04:11:21;;;;;;;0.30;0.30;;;16.90;99.90;;;;;;20578934;28;20251;-74
2021/10/15 04:21:26;;;;;;;0.43;0.43;;;17.20;99.90;;;;;;20578192;28;20239;-75
2021/10/15 04:31:30;;;;;;;0.50;0.40;;;17.30;99.90;;;;;;20579840;28;20314;-75
2021/10/15 04:41:36;;;;;;;0.40;0.40;;;17.20;99.90;;;;;;20657223;28;20229;-73
2021/10/15 04:51:39;;;;;;;1.30;0.60;;;17.10;99.90;;;;;;20656244;28;20689;-75
2021/10/15 05:01:44;;;;;;;0.60;0.50;;;17.00;99.90;;;;;;20652532;28;20297;-75
2021/10/15 05:11:48;;;;;;;0.27;0.23;;;16.80;99.90;;;;;;20654027;28;20722;-76
2021/10/15 05:21:53;;;;;;;0.27;0.27;;;16.70;99.90;;;;;;20654012;28;20230;-76
2021/10/15 05:31:57;;;;;;;0.40;0.40;;;17.10;99.90;;;;;;20654843;28;20224;-74
2021/10/15 05:42:02;;;;;;;1.47;1.27;;;17.30;99.90;;;;;;20653727;28;20231;-78
2021/10/15 05:52:08;;;;;;;0.30;0.30;;;17.20;99.90;;;;;;20649632;28;20390;-78
2021/10/15 06:02:14;;;;;;;0.37;0.37;;;17.30;99.90;;;;;;20646640;28;20250;-71
2021/10/15 06:22:40;;;;;;;0.83;0.53;;;17.40;99.90;;;;;;20649966;28;20219;-75
2021/10/15 06:32:44;;;;;;;0.60;0.60;;;17.50;99.90;;;;;;20651767;28;20241;-77
2021/10/15 06:42:50;;;;;;;0.30;0.30;;;17.90;99.90;;;;;;20663978;28;20234;-77
2021/10/15 06:52:54;;;;;;;0.63;0.63;;;18.20;99.90;;;;;;20647098;28;20204;-86
2021/10/15 07:02:59;;;;;;;0.80;0.60;;;18.70;99.90;;;;;;20583055;28;20334;-71
2021/10/15 07:13:04;;;;;;;0.53;0.53;;;19.10;99.90;;;;;;20586045;28;20295;-77
2021/10/15 07:23:16;;;;;;;0.33;0.33;;;19.40;99.90;;;;;;20563132;28;20228;-76
2021/10/15 07:33:21;;;;;;;0.30;0.30;;;19.50;99.90;;;;;;20581240;28;20212;-77
2021/10/15 07:43:26;;;;;;;1.23;1.00;;;19.80;99.90;;;;;;20580677;28;20211;-77
2021/10/15 07:53:30;;;;;;;0.30;0.30;;;20.00;99.90;;;;;;20643832;28;20534;-79
2021/10/15 08:03:35;;;;;;;1.00;0.90;;;20.00;99.90;;;;;;20659908;28;20195;-77
2021/10/15 08:13:39;;;;;;;0.30;0.30;;;20.10;99.90;;;;;;20658846;28;20238;-78
2021/10/15 08:23:45;;;;;;;0.80;0.63;;;20.30;99.90;;;;;;20642244;28;20279;-74
2021/10/15 08:33:49;;;;;;;0.63;0.40;;;20.60;99.90;;;;;;20656254;28;20255;-79
2021/10/15 08:43:57;;;;;;;0.97;0.87;;;20.80;99.90;;;;;;20656955;28;20211;-75
2021/10/15 08:54:01;;;;;;;1.90;0.87;;;20.80;99.90;;;;;;20647395;28;20207;-76
2021/10/15 09:04:07;;;;;;;0.57;0.53;;;20.90;99.90;;;;;;20652189;28;20553;-78
2021/10/15 09:14:14;;;;;;;0.50;0.50;;;21.10;99.90;;;;;;20651570;28;20246;-82
2021/10/15 09:24:34;;;;;;;0.33;0.33;;;21.50;99.90;;;;;;20651923;28;20609;-74
2021/10/15 09:34:39;;;;;;;0.45;0.45;;;21.90;99.90;;;;;;20652504;28;20278;-76
2021/10/15 09:44:45;;;;;;;0.63;0.63;;;22.30;99.90;;;;;;20652175;28;20196;-77
2021/10/15 09:54:55;;;;;;;0.60;0.60;;;22.50;99.90;;;;;;20652517;28;20301;-77
2021/10/15 10:05:02;;;;;;;1.30;0.60;;;22.70;99.90;;;;;;20650374;28;20291;-78
2021/10/15 10:15:08;;;;;;;3.03;1.80;;;23.30;99.90;;;;;;20665864;28;20646;-78
2021/10/15 10:25:21;;;;;;;0.55;0.55;;;23.90;99.90;;;;;;20667908;28;20203;-77
2021/10/15 10:36:42;;;;;;;1.05;0.85;;;23.60;99.90;;;;;;20734030;23;20704;-76
2021/10/15 10:47:12;;;;;;;2.15;0.77;;;23.90;99.90;;;;;;20663810;28;20548;-79
2021/10/15 10:57:55;;;;;;;3.15;1.20;;;23.50;99.90;;;;;;20661782;28;20289;-73
2021/10/15 11:08:32;;;;;;;0.82;0.82;;;23.40;99.90;;;;;;20663196;28;20195;-77
2021/10/15 11:18:39;;;;;;;1.25;0.93;;;23.80;99.90;;;;;;20657102;28;20219;-77
2021/10/15 11:28:44;;;;;;;1.77;1.27;;;23.90;99.90;;;;;;20652921;28;20227;-80
2021/10/15 11:38:47;;;;;;;1.38;1.23;;;23.90;99.90;;;;;;20664642;28;20587;-81
2021/10/15 11:48:56;;;;;;;4.78;1.30;;;24.00;99.90;;;;;;20662923;28;20697;-80
2021/10/15 11:59:01;;;;;;;1.48;1.38;;;23.60;99.90;;;;;;20659796;28;20373;-77
2021/10/15 12:09:08;;;;;;;0.57;0.55;;;23.80;99.90;;;;;;20657383;28;20267;-79
2021/10/15 12:19:13;;;;;;;3.60;1.55;;;24.60;99.90;;;;;;20656888;28;20273;-77
2021/10/15 12:29:28;;;;;;;1.58;1.48;;;26.30;99.90;;;;;;20654187;28;20287;-74
2021/10/15 12:39:31;;;;;;;1.00;0.65;;;26.20;99.90;;;;;;20650985;28;20235;-78
2021/10/15 12:49:58;;;;;;;2.45;1.42;;;26.00;99.90;;;;;;20657936;28;20195;-75
2021/10/15 13:00:06;;;;;;;1.73;1.30;;;25.80;99.90;;;;;;20656204;28;20231;-79
2021/10/15 13:10:19;;;;;;;0.73;0.57;;;25.30;99.90;;;;;;20657788;28;20234;-82
2021/10/15 13:20:26;;;;;;;4.32;1.42;;;25.20;99.90;;;;;;20661196;28;20251;-81
2021/10/15 13:30:31;;;;;;;0.88;0.88;;;27.20;99.90;;;;;;20655433;28;20196;-86
2021/10/15 13:40:47;;;;;;;0.85;0.50;;;28.60;99.90;;;;;;20635462;28;20270;-80
2021/10/15 13:51:05;;;;;;;0.73;0.30;;;25.70;99.90;;;;;;20665091;28;20600;-82
2021/10/15 14:01:14;;;;;;;0.50;0.50;;;24.60;99.90;;;;;;20651701;28;20302;-78
2021/10/15 14:11:22;;;;;;;0.80;0.80;;;24.50;99.90;;;;;;20649531;28;20293;-80
2021/10/15 14:21:26;;;;;;;1.65;1.02;;;24.00;99.90;;;;;;20649741;28;20233;-76
2021/10/15 14:31:32;;;;;;;0.75;0.70;;;23.50;99.90;;;;;;20648611;28;20214;-80
2021/10/15 14:41:37;;;;;;;0.43;0.43;;;24.30;99.90;;;;;;20646717;28;20700;-80
2021/10/15 14:51:54;;;;;;;2.35;1.55;;;25.50;99.90;;;;;;20652954;23;20779;-79
2021/10/15 15:02:01;;;;;;;0.68;0.65;;;24.00;99.90;;;;;;20663784;28;20227;-77
2021/10/15 15:12:09;;;;;;;3.92;1.40;;;23.40;99.90;;;;;;20644126;28;20784;-80
2021/10/15 15:22:14;;;;;;;8.13;0.98;;;23.00;99.90;;;;;;20661160;28;20235;-81
2021/10/15 15:32:22;;;;;;;0.60;0.50;;;23.20;99.90;;;;;;20660701;28;20232;-82
2021/10/15 15:42:39;;;;;;;0.63;0.45;;;23.80;99.90;;;;;;20654773;28;20231;-82
2021/10/15 15:52:47;;;;;;;0.63;0.63;;;23.50;99.90;;;;;;20637250;28;20283;-81
2021/10/15 16:02:51;;;;;;;1.05;0.90;;;22.70;99.90;;;;;;20578423;28;20410;-78
2021/10/15 16:12:57;;;;;;;4.10;0.80;;;22.60;99.90;;;;;;20575332;28;20198;-78
2021/10/15 16:23:02;;;;;;;22.80;0.70;;;22.50;99.90;;;;;;20573454;28;20262;-80
2021/10/15 16:33:08;;;;;;;0.70;0.40;;;22.40;99.90;;;;;;20573522;28;20196;-79
2021/10/15 16:43:12;;;;;;;0.65;0.65;;;22.20;99.90;;;;;;20602813;28;20286;-81
2021/10/15 16:53:18;;;;;;;0.40;0.40;;;22.00;99.90;;;;;;20656036;28;20226;-79
2021/10/15 17:03:21;;;;;;;2.73;0.90;;;21.90;99.90;;;;;;20653182;28;20303;-77
2021/10/15 17:13:27;;;;;;;0.97;0.83;;;21.70;99.90;;;;;;20653251;28;20183;-81
2021/10/15 17:23:41;;;;;;;1.67;0.80;;;21.60;99.90;;;;;;20649506;28;20247;-78
2021/10/15 17:33:48;;;;;;;2.20;0.53;;;21.60;99.90;;;;;;20650243;28;20277;-78
2021/10/15 17:43:51;;;;;;;3.37;2.37;;;21.50;99.90;;;;;;20659883;28;20287;-83
2021/10/15 17:53:57;;;;;;;4.00;1.40;;;21.00;99.90;;;;;;20656458;28;20231;-85
2021/10/15 18:04:01;;;;;;;2.20;0.63;;;20.70;99.90;;;;;;20601350;28;20223;-82
2021/10/15 18:14:06;;;;;;;1.33;1.23;;;20.30;99.90;;;;;;20583172;28;20287;-83
2021/10/15 18:24:10;;;;;;;2.10;1.90;;;20.20;99.90;;;;;;20570563;28;20235;-81
2021/10/15 18:34:15;;;;;;;0.80;0.80;;;20.20;99.90;;;;;;20607792;28;20199;-80
2021/10/15 18:44:18;;;;;;;1.53;1.00;;;20.30;99.90;;;;;;20662131;28;20565;-79
2021/10/15 18:54:23;;;;;;;2.83;1.77;;;20.40;99.90;;;;;;20605030;28;20335;-81
2021/10/15 19:04:27;;;;;;;3.27;0.80;;;20.30;99.90;;;;;;20584061;28;20695;-82
2021/10/15 19:14:32;;;;;;;0.63;0.63;;;20.00;99.90;;;;;;20581232;28;20195;-79
2021/10/15 19:24:36;;;;;;;0.47;0.47;;;19.80;99.90;;;;;;20639830;28;20219;-79
2021/10/15 19:34:41;;;;;;;2.43;1.47;;;19.70;99.90;;;;;;20657204;28;20677;-79
2021/10/15 19:44:44;;;;;;;1.23;1.13;;;19.70;99.90;;;;;;20659609;28;20692;-79
2021/10/15 19:54:49;;;;;;;0.73;0.73;;;19.50;99.90;;;;;;20616405;28;20223;-81
2021/10/15 20:04:53;;;;;;;0.63;0.63;;;19.60;99.90;;;;;;20582647;28;20327;-82
2021/10/15 20:14:58;;;;;;;1.50;1.10;;;19.60;99.90;;;;;;20584318;28;20367;-83
2021/10/15 20:25:01;;;;;;;3.17;1.20;;;19.50;99.90;;;;;;20605805;28;20235;-83
2021/10/15 20:35:08;;;;;;;0.60;0.60;;;19.40;99.90;;;;;;20615769;28;20653;-84
2021/10/15 20:45:12;;;;;;;3.20;1.47;;;19.50;99.90;;;;;;20672894;28;20228;-86
2021/10/15 20:55:17;;;;;;;0.30;0.30;;;19.30;99.90;;;;;;20654504;28;20232;-81
2021/10/15 21:05:21;;;;;;;0.27;0.27;;;19.30;99.90;;;;;;20606602;28;20216;-81
2021/10/15 21:15:26;;;;;;;2.03;1.10;;;19.10;99.90;;;;;;20613357;28;20266;-80
2021/10/15 21:25:30;;;;;;;0.93;0.93;;;19.00;99.90;;;;;;20619448;28;20248;-84
2021/10/15 21:35:35;;;;;;;1.87;1.00;;;18.50;99.90;;;;;;20613521;28;20282;-83
2021/10/15 21:45:39;;;;;;;1.80;0.73;;;18.10;99.90;;;;;;20613614;28;20319;-85
2021/10/15 21:55:44;;;;;;;2.50;0.73;;;18.10;99.90;;;;;;20606754;28;20239;-84
2021/10/15 22:05:48;;;;;;;1.73;1.03;;;18.00;99.90;;;;;;20605659;28;20231;-85
2021/10/15 22:15:53;;;;;;;1.17;1.13;;;17.80;99.90;;;;;;20597308;28;20901;-80
2021/10/15 22:25:57;;;;;;;0.83;0.83;;;17.80;99.90;;;;;;20609636;28;20243;-82
2021/10/15 22:36:02;;;;;;;0.30;0.30;;;17.70;99.90;;;;;;20609847;28;20619;-82
2021/10/15 22:46:05;;;;;;;0.57;0.27;;;17.50;99.90;;;;;;20610012;28;20223;-82
2021/10/15 22:56:11;;;;;;;3.20;0.93;;;17.40;99.90;;;;;;20604720;28;20235;-81
2021/10/15 23:06:14;;;;;;;0.20;0.10;;;17.10;99.90;;;;;;20608132;28;20327;-80
2021/10/15 23:16:19;;;;;;;0.57;0.57;;;17.20;99.90;;;;;;20612112;28;20287;-80
2021/10/15 23:26:23;;;;;;;0.77;0.77;;;17.40;99.90;;;;;;20619929;28;20650;-80
2021/10/15 23:36:28;;;;;;;0.60;0.53;;;17.40;99.90;;;;;;20620519;28;20274;-82
2021/10/15 23:46:34;;;;;;;1.63;0.70;;;17.40;99.90;;;;;;20632102;28;20189;-82
2021/10/15 23:56:39;;;;;;;0.83;0.83;;;17.50;99.90;;;;;;20615949;28;20238;-82
